sensor_id;sensor_type;location;lat;lon;timestamp;pressure;altitude;pressure_sealevel;temperature;humidity
67457;BME280;54319;52.038;4.640;2023-05-03T00:02:00;103070.31;;;5.53;81.30
67457;BME280;54319;52.038;4.640;2023-05-03T00:04:28;103076.84;;;5.50;81.53
67457;BME280;54319;52.038;4.640;2023-05-03T00:06:55;103072.66;;;5.46;81.58
67457;BME280;54319;52.038;4.640;2023-05-03T00:09:22;103063.78;;;5.44;82.04
67457;BME280;54319;52.038;4.640;2023-05-03T00:11:50;103071.28;;;5.40;82.21
67457;BME280;54319;52.038;4.640;2023-05-03T00:14:17;103070.69;;;5.36;82.71
67457;BME280;54319;52.038;4.640;2023-05-03T00:16:43;103064.66;;;5.33;82.47
67457;BME280;54319;52.038;4.640;2023-05-03T00:19:10;103066.63;;;5.31;82.80
67457;BME280;54319;52.038;4.640;2023-05-03T00:21:36;103071.94;;;5.32;83.00
67457;BME280;54319;52.038;4.640;2023-05-03T00:24:03;103065.78;;;5.30;83.30
67457;BME280;54319;52.038;4.640;2023-05-03T00:26:29;103072.03;;;5.31;83.49
67457;BME280;54319;52.038;4.640;2023-05-03T00:28:58;103063.91;;;5.31;83.16
67457;BME280;54319;52.038;4.640;2023-05-03T00:31:25;103066.72;;;5.29;83.40
67457;BME280;54319;52.038;4.640;2023-05-03T00:33:51;103069.44;;;5.29;83.63
67457;BME280;54319;52.038;4.640;2023-05-03T00:36:18;103066.00;;;5.27;83.85
67457;BME280;54319;52.038;4.640;2023-05-03T00:38:44;103064.28;;;5.26;84.02
67457;BME280;54319;52.038;4.640;2023-05-03T00:41:10;103064.50;;;5.23;83.93
67457;BME280;54319;52.038;4.640;2023-05-03T00:43:38;103066.47;;;5.21;84.21
67457;BME280;54319;52.038;4.640;2023-05-03T00:46:06;103072.03;;;5.19;84.24
67457;BME280;54319;52.038;4.640;2023-05-03T00:48:32;103066.00;;;5.16;84.09
67457;BME280;54319;52.038;4.640;2023-05-03T00:50:59;103069.69;;;5.15;84.26
67457;BME280;54319;52.038;4.640;2023-05-03T00:53:26;103071.75;;;5.11;84.21
67457;BME280;54319;52.038;4.640;2023-05-03T00:55:53;103071.00;;;5.09;84.46
67457;BME280;54319;52.038;4.640;2023-05-03T00:58:20;103073.13;;;5.05;84.61
67457;BME280;54319;52.038;4.640;2023-05-03T01:00:46;103083.06;;;5.05;84.64
67457;BME280;54319;52.038;4.640;2023-05-03T01:03:14;103082.31;;;5.03;85.04
67457;BME280;54319;52.038;4.640;2023-05-03T01:05:43;103081.59;;;5.01;85.08
67457;BME280;54319;52.038;4.640;2023-05-03T01:08:14;103069.28;;;4.97;85.12
67457;BME280;54319;52.038;4.640;2023-05-03T01:10:47;103075.81;;;4.94;85.59
67457;BME280;54319;52.038;4.640;2023-05-03T01:13:18;103072.22;;;4.93;85.44
67457;BME280;54319;52.038;4.640;2023-05-03T01:15:48;103068.78;;;4.91;85.66
67457;BME280;54319;52.038;4.640;2023-05-03T01:18:22;103070.75;;;4.89;85.97
67457;BME280;54319;52.038;4.640;2023-05-03T01:20:49;103070.13;;;4.86;86.19
67457;BME280;54319;52.038;4.640;2023-05-03T01:23:20;103073.06;;;4.83;86.44
67457;BME280;54319;52.038;4.640;2023-05-03T01:25:51;103079.44;;;4.82;86.31
67457;BME280;54319;52.038;4.640;2023-05-03T01:28:17;103077.00;;;4.78;86.61
67457;BME280;54319;52.038;4.640;2023-05-03T01:30:43;103072.56;;;4.77;86.75
67457;BME280;54319;52.038;4.640;2023-05-03T01:33:12;103077.22;;;4.75;86.88
67457;BME280;54319;52.038;4.640;2023-05-03T01:35:43;103075.50;;;4.74;86.62
67457;BME280;54319;52.038;4.640;2023-05-03T01:38:10;103071.31;;;4.70;86.86
67457;BME280;54319;52.038;4.640;2023-05-03T01:40:39;103074.13;;;4.69;87.28
67457;BME280;54319;52.038;4.640;2023-05-03T01:43:08;103054.94;;;4.60;87.53
67457;BME280;54319;52.038;4.640;2023-05-03T01:45:35;103058.28;;;4.64;87.90
67457;BME280;54319;52.038;4.640;2023-05-03T01:48:03;103055.44;;;4.66;88.16
67457;BME280;54319;52.038;4.640;2023-05-03T01:50:33;103053.59;;;4.66;88.18
67457;BME280;54319;52.038;4.640;2023-05-03T01:53:00;103050.91;;;4.66;87.97
67457;BME280;54319;52.038;4.640;2023-05-03T01:55:26;103045.50;;;4.66;88.16
67457;BME280;54319;52.038;4.640;2023-05-03T01:57:52;103032.97;;;4.65;87.88
67457;BME280;54319;52.038;4.640;2023-05-03T02:00:20;103023.97;;;4.64;88.29
67457;BME280;54319;52.038;4.640;2023-05-03T02:02:47;103021.16;;;4.66;88.35
67457;BME280;54319;52.038;4.640;2023-05-03T02:05:13;103013.91;;;4.67;88.60
67457;BME280;54319;52.038;4.640;2023-05-03T02:07:40;103007.50;;;4.68;89.04
67457;BME280;54319;52.038;4.640;2023-05-03T02:10:07;103007.41;;;4.69;89.00
67457;BME280;54319;52.038;4.640;2023-05-03T02:12:36;103005.69;;;4.68;88.86
67457;BME280;54319;52.038;4.640;2023-05-03T02:15:02;102998.31;;;4.70;88.90
67457;BME280;54319;52.038;4.640;2023-05-03T02:17:30;102991.19;;;4.69;88.83
67457;BME280;54319;52.038;4.640;2023-05-03T02:19:57;102995.72;;;4.69;88.34
67457;BME280;54319;52.038;4.640;2023-05-03T02:22:23;103009.38;;;4.67;88.38
67457;BME280;54319;52.038;4.640;2023-05-03T02:24:49;103007.66;;;4.66;88.24
67457;BME280;54319;52.038;4.640;2023-05-03T02:27:16;103016.75;;;4.65;88.10
67457;BME280;54319;52.038;4.640;2023-05-03T02:29:42;103025.59;;;4.67;87.96
67457;BME280;54319;52.038;4.640;2023-05-03T02:32:09;103030.13;;;4.67;87.44
67457;BME280;54319;52.038;4.640;2023-05-03T02:34:37;103038.13;;;4.68;87.41
67457;BME280;54319;52.038;4.640;2023-05-03T02:37:04;103041.56;;;4.70;87.08
67457;BME280;54319;52.038;4.640;2023-05-03T02:39:30;103034.44;;;4.69;87.23
67457;BME280;54319;52.038;4.640;2023-05-03T02:41:57;103036.28;;;4.69;86.80
67457;BME280;54319;52.038;4.640;2023-05-03T02:44:23;103044.38;;;4.69;86.94
67457;BME280;54319;52.038;4.640;2023-05-03T02:46:50;103045.25;;;4.69;86.50
67457;BME280;54319;52.038;4.640;2023-05-03T02:49:18;103042.56;;;4.69;86.67
67457;BME280;54319;52.038;4.640;2023-05-03T02:51:46;103047.09;;;4.69;86.52
67457;BME280;54319;52.038;4.640;2023-05-03T02:54:13;103044.38;;;4.69;86.54
67457;BME280;54319;52.038;4.640;2023-05-03T02:56:39;103038.22;;;4.67;86.63
67457;BME280;54319;52.038;4.640;2023-05-03T02:59:05;103037.50;;;4.64;86.59
67457;BME280;54319;52.038;4.640;2023-05-03T03:01:32;103046.72;;;4.62;86.64
67457;BME280;54319;52.038;4.640;2023-05-03T03:03:59;103041.41;;;4.60;87.06
67457;BME280;54319;52.038;4.640;2023-05-03T03:06:25;103039.84;;;4.58;86.66
67457;BME280;54319;52.038;4.640;2023-05-03T03:08:53;103041.78;;;4.56;86.89
67457;BME280;54319;52.038;4.640;2023-05-03T03:11:19;103047.41;;;4.53;87.00
67457;BME280;54319;52.038;4.640;2023-05-03T03:13:46;103059.19;;;4.52;86.47
67457;BME280;54319;52.038;4.640;2023-05-03T03:16:12;103057.72;;;4.47;86.55
67457;BME280;54319;52.038;4.640;2023-05-03T03:18:39;103056.00;;;4.46;86.89
67457;BME280;54319;52.038;4.640;2023-05-03T03:21:05;103057.09;;;4.44;86.54
67457;BME280;54319;52.038;4.640;2023-05-03T03:23:32;103049.09;;;4.42;86.76
67457;BME280;54319;52.038;4.640;2023-05-03T03:26:00;103056.47;;;4.40;86.36
67457;BME280;54319;52.038;4.640;2023-05-03T03:28:26;103057.66;;;4.36;86.28
67457;BME280;54319;52.038;4.640;2023-05-03T03:30:53;103053.34;;;4.33;86.15
67457;BME280;54319;52.038;4.640;2023-05-03T03:33:19;103056.28;;;4.30;86.16
67457;BME280;54319;52.038;4.640;2023-05-03T03:35:46;103046.59;;;4.28;85.90
67457;BME280;54319;52.038;4.640;2023-05-03T03:38:12;103048.56;;;4.26;86.64
67457;BME280;54319;52.038;4.640;2023-05-03T03:40:39;103049.63;;;4.23;86.40
67457;BME280;54319;52.038;4.640;2023-05-03T03:43:06;103048.78;;;4.23;86.54
67457;BME280;54319;52.038;4.640;2023-05-03T03:45:34;103049.03;;;4.19;86.83
67457;BME280;54319;52.038;4.640;2023-05-03T03:48:00;103058.09;;;4.18;86.67
67457;BME280;54319;52.038;4.640;2023-05-03T03:50:27;103056.47;;;4.16;86.65
67457;BME280;54319;52.038;4.640;2023-05-03T03:52:53;103058.53;;;4.12;86.79
67457;BME280;54319;52.038;4.640;2023-05-03T03:55:20;103062.22;;;4.11;86.63
67457;BME280;54319;52.038;4.640;2023-05-03T03:57:46;103065.03;;;4.10;86.64
67457;BME280;54319;52.038;4.640;2023-05-03T04:00:14;103070.44;;;4.10;86.46
67457;BME280;54319;52.038;4.640;2023-05-03T04:02:42;103067.97;;;4.07;86.35
67457;BME280;54319;52.038;4.640;2023-05-03T04:05:08;103076.41;;;4.02;86.33
67457;BME280;54319;52.038;4.640;2023-05-03T04:07:35;103074.81;;;3.99;86.54
67457;BME280;54319;52.038;4.640;2023-05-03T04:10:01;103083.34;;;3.93;86.39
67457;BME280;54319;52.038;4.640;2023-05-03T04:12:27;103079.28;;;3.87;86.65
67457;BME280;54319;52.038;4.640;2023-05-03T04:14:54;103082.44;;;3.81;86.05
67457;BME280;54319;52.038;4.640;2023-05-03T04:17:22;103087.41;;;3.74;86.14
67457;BME280;54319;52.038;4.640;2023-05-03T04:19:50;103096.56;;;3.72;86.29
67457;BME280;54319;52.038;4.640;2023-05-03T04:22:17;103091.41;;;3.69;86.32
67457;BME280;54319;52.038;4.640;2023-05-03T04:24:43;103090.66;;;3.67;86.66
67457;BME280;54319;52.038;4.640;2023-05-03T04:27:09;103091.84;;;3.62;87.04
67457;BME280;54319;52.038;4.640;2023-05-03T04:29:38;103091.19;;;3.59;87.15
67457;BME280;54319;52.038;4.640;2023-05-03T04:32:05;103085.94;;;3.57;87.04
67457;BME280;54319;52.038;4.640;2023-05-03T04:34:33;103088.50;;;3.59;87.30
67457;BME280;54319;52.038;4.640;2023-05-03T04:37:00;103075.22;;;3.56;87.77
67457;BME280;54319;52.038;4.640;2023-05-03T04:39:26;103077.94;;;3.56;88.00
67457;BME280;54319;52.038;4.640;2023-05-03T04:41:53;103082.25;;;3.58;88.15
67457;BME280;54319;52.038;4.640;2023-05-03T04:44:19;103078.59;;;3.59;88.09
67457;BME280;54319;52.038;4.640;2023-05-03T04:46:46;103076.75;;;3.60;88.44
67457;BME280;54319;52.038;4.640;2023-05-03T04:49:13;103080.09;;;3.64;88.94
67457;BME280;54319;52.038;4.640;2023-05-03T04:51:41;103077.16;;;3.67;89.17
67457;BME280;54319;52.038;4.640;2023-05-03T04:54:08;103082.34;;;3.70;89.26
67457;BME280;54319;52.038;4.640;2023-05-03T04:56:34;103088.25;;;3.75;89.65
67457;BME280;54319;52.038;4.640;2023-05-03T04:59:01;103081.69;;;3.79;89.48
67457;BME280;54319;52.038;4.640;2023-05-03T05:01:28;103081.31;;;3.84;89.64
67457;BME280;54319;52.038;4.640;2023-05-03T05:03:55;103083.69;;;3.88;89.79
67457;BME280;54319;52.038;4.640;2023-05-03T05:06:21;103092.44;;;3.92;89.51
67457;BME280;54319;52.038;4.640;2023-05-03T05:08:50;103089.41;;;3.97;89.39
67457;BME280;54319;52.038;4.640;2023-05-03T05:11:16;103092.63;;;4.02;89.23
67457;BME280;54319;52.038;4.640;2023-05-03T05:13:44;103092.28;;;4.07;88.92
67457;BME280;54319;52.038;4.640;2023-05-03T05:16:11;103099.19;;;4.11;88.83
67457;BME280;54319;52.038;4.640;2023-05-03T05:18:37;103095.28;;;4.15;88.41
67457;BME280;54319;52.038;4.640;2023-05-03T05:21:04;103095.94;;;4.18;88.47
67457;BME280;54319;52.038;4.640;2023-05-03T05:23:30;103093.59;;;4.25;87.99
67457;BME280;54319;52.038;4.640;2023-05-03T05:25:58;103097.69;;;4.31;87.71
67457;BME280;54319;52.038;4.640;2023-05-03T05:28:25;103101.88;;;4.35;87.59
67457;BME280;54319;52.038;4.640;2023-05-03T05:30:52;103100.59;;;4.41;87.11
67457;BME280;54319;52.038;4.640;2023-05-03T05:33:18;103100.97;;;4.47;87.05
67457;BME280;54319;52.038;4.640;2023-05-03T05:35:45;103101.38;;;4.54;86.88
67457;BME280;54319;52.038;4.640;2023-05-03T05:38:12;103102.75;;;4.60;87.28
67457;BME280;54319;52.038;4.640;2023-05-03T05:40:38;103109.50;;;4.66;86.32
67457;BME280;54319;52.038;4.640;2023-05-03T05:43:06;103111.63;;;4.73;86.14
67457;BME280;54319;52.038;4.640;2023-05-03T05:45:32;103115.72;;;4.79;85.01
67457;BME280;54319;52.038;4.640;2023-05-03T05:47:59;103109.59;;;4.88;84.77
67457;BME280;54319;52.038;4.640;2023-05-03T05:50:26;103113.53;;;4.96;84.59
67457;BME280;54319;52.038;4.640;2023-05-03T05:52:52;103107.56;;;5.03;83.88
67457;BME280;54319;52.038;4.640;2023-05-03T05:55:18;103108.53;;;5.14;83.30
67457;BME280;54319;52.038;4.640;2023-05-03T05:57:45;103109.78;;;5.21;82.48
67457;BME280;54319;52.038;4.640;2023-05-03T06:00:13;103103.78;;;5.29;81.73
67457;BME280;54319;52.038;4.640;2023-05-03T06:02:41;103104.16;;;5.35;80.56
67457;BME280;54319;52.038;4.640;2023-05-03T06:05:08;103104.41;;;5.44;80.11
67457;BME280;54319;52.038;4.640;2023-05-03T06:07:34;103095.69;;;5.52;80.03
67457;BME280;54319;52.038;4.640;2023-05-03T06:10:01;103100.34;;;5.61;79.59
67457;BME280;54319;52.038;4.640;2023-05-03T06:12:28;103099.13;;;5.65;80.16
67457;BME280;54319;52.038;4.640;2023-05-03T06:14:55;103103.28;;;5.69;80.11
67457;BME280;54319;52.038;4.640;2023-05-03T06:17:22;103102.78;;;5.75;78.48
67457;BME280;54319;52.038;4.640;2023-05-03T06:19:50;103101.19;;;5.84;78.36
67457;BME280;54319;52.038;4.640;2023-05-03T06:22:16;103105.25;;;5.90;77.64
67457;BME280;54319;52.038;4.640;2023-05-03T06:24:43;103115.34;;;5.99;77.60
67457;BME280;54319;52.038;4.640;2023-05-03T06:27:09;103114.97;;;6.04;77.60
67457;BME280;54319;52.038;4.640;2023-05-03T06:29:36;103106.94;;;6.14;77.42
67457;BME280;54319;52.038;4.640;2023-05-03T06:32:02;103112.72;;;6.20;76.92
67457;BME280;54319;52.038;4.640;2023-05-03T06:34:30;103107.53;;;6.29;75.70
67457;BME280;54319;52.038;4.640;2023-05-03T06:36:56;103096.91;;;6.37;76.10
67457;BME280;54319;52.038;4.640;2023-05-03T06:39:23;103103.59;;;6.54;74.98
67457;BME280;54319;52.038;4.640;2023-05-03T06:41:49;103095.75;;;6.72;74.33
67457;BME280;54319;52.038;4.640;2023-05-03T06:44:16;103096.03;;;6.90;73.89
67457;BME280;54319;52.038;4.640;2023-05-03T06:46:42;103090.03;;;7.08;72.53
67457;BME280;54319;52.038;4.640;2023-05-03T06:49:08;103084.41;;;7.31;71.16
67457;BME280;54319;52.038;4.640;2023-05-03T06:51:36;103084.53;;;7.50;69.83
67457;BME280;54319;52.038;4.640;2023-05-03T06:54:03;103076.53;;;7.59;68.68
67457;BME280;54319;52.038;4.640;2023-05-03T06:56:33;103090.03;;;7.80;68.77
67457;BME280;54319;52.038;4.640;2023-05-03T06:59:00;103088.69;;;7.95;68.83
67457;BME280;54319;52.038;4.640;2023-05-03T07:01:28;103089.09;;;8.10;67.71
67457;BME280;54319;52.038;4.640;2023-05-03T07:03:54;103079.94;;;8.11;68.17
67457;BME280;54319;52.038;4.640;2023-05-03T07:06:21;103083.25;;;8.15;67.32
67457;BME280;54319;52.038;4.640;2023-05-03T07:08:50;103074.38;;;8.33;67.83
67457;BME280;54319;52.038;4.640;2023-05-03T07:11:16;103079.00;;;8.72;65.97
67457;BME280;54319;52.038;4.640;2023-05-03T07:13:43;103065.91;;;9.43;64.78
67457;BME280;54319;52.038;4.640;2023-05-03T07:16:10;103070.38;;;10.18;62.99
67457;BME280;54319;52.038;4.640;2023-05-03T07:18:36;103064.31;;;10.78;60.47
67457;BME280;54319;52.038;4.640;2023-05-03T07:21:03;103065.53;;;11.37;57.55
67457;BME280;54319;52.038;4.640;2023-05-03T07:23:30;103061.53;;;12.09;56.55
67457;BME280;54319;52.038;4.640;2023-05-03T07:25:58;103053.00;;;12.86;51.40
67457;BME280;54319;52.038;4.640;2023-05-03T07:28:24;103057.44;;;13.60;48.73
67457;BME280;54319;52.038;4.640;2023-05-03T07:30:51;103056.34;;;14.10;47.62
67457;BME280;54319;52.038;4.640;2023-05-03T07:33:17;103057.28;;;14.64;45.73
67457;BME280;54319;52.038;4.640;2023-05-03T07:35:44;103055.69;;;15.08;43.84
67457;BME280;54319;52.038;4.640;2023-05-03T07:38:10;103052.28;;;15.21;43.58
67457;BME280;54319;52.038;4.640;2023-05-03T07:40:37;103050.22;;;15.38;44.11
67457;BME280;54319;52.038;4.640;2023-05-03T07:43:05;103038.91;;;15.99;41.60
67457;BME280;54319;52.038;4.640;2023-05-03T07:45:31;103037.13;;;15.91;39.70
67457;BME280;54319;52.038;4.640;2023-05-03T07:47:57;103037.75;;;15.57;40.90
67457;BME280;54319;52.038;4.640;2023-05-03T07:50:24;103036.75;;;15.80;40.30
67457;BME280;54319;52.038;4.640;2023-05-03T07:52:51;103035.66;;;15.59;39.35
67457;BME280;54319;52.038;4.640;2023-05-03T07:55:17;103043.25;;;15.57;41.21
67457;BME280;54319;52.038;4.640;2023-05-03T07:57:44;103048.78;;;15.57;41.09
67457;BME280;54319;52.038;4.640;2023-05-03T08:00:13;103045.50;;;15.68;42.26
67457;BME280;54319;52.038;4.640;2023-05-03T08:02:40;103038.63;;;15.42;40.79
67457;BME280;54319;52.038;4.640;2023-05-03T08:05:06;103049.63;;;15.42;41.31
67457;BME280;54319;52.038;4.640;2023-05-03T08:07:33;103051.03;;;15.53;42.32
67457;BME280;54319;52.038;4.640;2023-05-03T08:10:00;103043.44;;;15.55;39.38
67457;BME280;54319;52.038;4.640;2023-05-03T08:12:26;103034.75;;;15.22;40.64
67457;BME280;54319;52.038;4.640;2023-05-03T08:14:53;103035.41;;;15.24;41.17
67457;BME280;54319;52.038;4.640;2023-05-03T08:17:21;103036.47;;;15.74;40.26
67457;BME280;54319;52.038;4.640;2023-05-03T08:19:48;103041.88;;;16.19;38.73
67457;BME280;54319;52.038;4.640;2023-05-03T08:22:16;103032.41;;;15.70;40.28
67457;BME280;54319;52.038;4.640;2023-05-03T08:24:42;103041.16;;;15.74;40.03
67457;BME280;54319;52.038;4.640;2023-05-03T08:27:09;103044.00;;;15.66;41.06
67457;BME280;54319;52.038;4.640;2023-05-03T08:29:36;103038.06;;;15.32;42.32
67457;BME280;54319;52.038;4.640;2023-05-03T08:32:03;103043.47;;;15.25;42.56
67457;BME280;54319;52.038;4.640;2023-05-03T08:34:31;103039.00;;;15.24;43.13
67457;BME280;54319;52.038;4.640;2023-05-03T08:36:57;103050.50;;;15.28;42.74
67457;BME280;54319;52.038;4.640;2023-05-03T08:39:24;103050.31;;;14.76;42.16
67457;BME280;54319;52.038;4.640;2023-05-03T08:41:52;103053.13;;;14.68;43.43
67457;BME280;54319;52.038;4.640;2023-05-03T08:44:19;103059.09;;;14.01;43.28
67457;BME280;54319;52.038;4.640;2023-05-03T08:46:46;103050.94;;;13.93;44.36
67457;BME280;54319;52.038;4.640;2023-05-03T08:49:12;103055.22;;;13.56;45.23
67457;BME280;54319;52.038;4.640;2023-05-03T08:51:41;103066.44;;;13.29;45.86
67457;BME280;54319;52.038;4.640;2023-05-03T08:54:11;103053.00;;;12.95;45.85
67457;BME280;54319;52.038;4.640;2023-05-03T08:56:38;103061.06;;;12.80;46.72
67457;BME280;54319;52.038;4.640;2023-05-03T08:59:05;103068.28;;;12.72;48.13
67457;BME280;54319;52.038;4.640;2023-05-03T09:01:34;103061.22;;;12.78;47.83
67457;BME280;54319;52.038;4.640;2023-05-03T09:04:00;103068.75;;;12.76;47.76
67457;BME280;54319;52.038;4.640;2023-05-03T09:06:27;103062.25;;;12.94;48.59
67457;BME280;54319;52.038;4.640;2023-05-03T09:08:55;103056.78;;;12.69;47.49
67457;BME280;54319;52.038;4.640;2023-05-03T09:11:22;103060.56;;;12.68;48.26
67457;BME280;54319;52.038;4.640;2023-05-03T09:13:49;103066.38;;;12.73;48.46
67457;BME280;54319;52.038;4.640;2023-05-03T09:16:26;103070.13;;;12.88;48.19
67457;BME280;54319;52.038;4.640;2023-05-03T09:18:56;103065.81;;;13.02;47.40
67457;BME280;54319;52.038;4.640;2023-05-03T09:21:23;103057.44;;;12.96;47.73
67457;BME280;54319;52.038;4.640;2023-05-03T09:23:49;103061.69;;;13.07;48.06
67457;BME280;54319;52.038;4.640;2023-05-03T09:26:27;103060.16;;;13.12;46.40
67457;BME280;54319;52.038;4.640;2023-05-03T09:28:53;103063.56;;;13.14;46.97
67457;BME280;54319;52.038;4.640;2023-05-03T09:31:20;103057.72;;;13.17;48.02
67457;BME280;54319;52.038;4.640;2023-05-03T09:33:47;103048.31;;;13.20;48.51
67457;BME280;54319;52.038;4.640;2023-05-03T09:36:13;103050.31;;;13.35;47.38
67457;BME280;54319;52.038;4.640;2023-05-03T09:38:40;103044.50;;;13.46;46.90
67457;BME280;54319;52.038;4.640;2023-05-03T09:41:06;103044.25;;;13.64;47.12
67457;BME280;54319;52.038;4.640;2023-05-03T09:43:34;103047.00;;;13.64;44.92
67457;BME280;54319;52.038;4.640;2023-05-03T09:46:08;103052.47;;;13.64;46.29
67457;BME280;54319;52.038;4.640;2023-05-03T09:48:35;103052.63;;;13.63;46.78
67457;BME280;54319;52.038;4.640;2023-05-03T09:51:01;103051.34;;;13.82;45.69
67457;BME280;54319;52.038;4.640;2023-05-03T09:53:29;103044.06;;;13.66;46.38
67457;BME280;54319;52.038;4.640;2023-05-03T09:55:55;103039.84;;;13.86;46.06
67457;BME280;54319;52.038;4.640;2023-05-03T09:58:23;103046.69;;;14.14;47.46
67457;BME280;54319;52.038;4.640;2023-05-03T10:00:51;103046.31;;;14.17;45.12
67457;BME280;54319;52.038;4.640;2023-05-03T10:03:20;103047.66;;;14.21;44.17
67457;BME280;54319;52.038;4.640;2023-05-03T10:05:49;103047.91;;;14.35;45.94
67457;BME280;54319;52.038;4.640;2023-05-03T10:08:18;103041.53;;;14.57;45.52
67457;BME280;54319;52.038;4.640;2023-05-03T10:10:46;103045.59;;;14.23;43.22
67457;BME280;54319;52.038;4.640;2023-05-03T10:13:15;103041.94;;;14.31;44.57
67457;BME280;54319;52.038;4.640;2023-05-03T10:15:41;103047.97;;;14.26;44.68
67457;BME280;54319;52.038;4.640;2023-05-03T10:18:11;103035.50;;;13.92;43.92
67457;BME280;54319;52.038;4.640;2023-05-03T10:20:42;103037.94;;;13.87;44.88
67457;BME280;54319;52.038;4.640;2023-05-03T10:23:09;103032.03;;;13.98;46.04
67457;BME280;54319;52.038;4.640;2023-05-03T10:25:37;103030.03;;;14.39;45.23
67457;BME280;54319;52.038;4.640;2023-05-03T10:28:04;103026.47;;;14.53;43.81
67457;BME280;54319;52.038;4.640;2023-05-03T10:30:31;103021.19;;;14.28;45.28
67457;BME280;54319;52.038;4.640;2023-05-03T10:32:59;103020.31;;;14.51;45.76
67457;BME280;54319;52.038;4.640;2023-05-03T10:35:49;103031.22;;;14.83;43.90
67457;BME280;54319;52.038;4.640;2023-05-03T10:38:19;103024.66;;;14.84;44.20
67457;BME280;54319;52.038;4.640;2023-05-03T10:40:46;103027.00;;;14.72;43.59
67457;BME280;54319;52.038;4.640;2023-05-03T10:45:57;103022.31;;;15.26;43.08
67457;BME280;54319;52.038;4.640;2023-05-03T10:48:24;103019.66;;;15.32;42.39
67457;BME280;54319;52.038;4.640;2023-05-03T10:50:52;103017.88;;;15.40;42.51
67457;BME280;54319;52.038;4.640;2023-05-03T10:53:34;103009.59;;;15.55;40.33
67457;BME280;54319;52.038;4.640;2023-05-03T10:56:01;103013.50;;;15.30;42.31
67457;BME280;54319;52.038;4.640;2023-05-03T10:58:30;103020.03;;;15.29;43.08
67457;BME280;54319;52.038;4.640;2023-05-03T11:01:00;103009.25;;;15.28;42.61
67457;BME280;54319;52.038;4.640;2023-05-03T11:03:32;103000.34;;;15.26;42.28
67457;BME280;54319;52.038;4.640;2023-05-03T11:06:01;103000.44;;;15.17;42.90
67457;BME280;54319;52.038;4.640;2023-05-03T11:08:28;102995.22;;;15.38;42.95
67457;BME280;54319;52.038;4.640;2023-05-03T11:11:01;103005.25;;;15.30;41.20
67457;BME280;54319;52.038;4.640;2023-05-03T11:13:31;102998.50;;;15.48;41.41
67457;BME280;54319;52.038;4.640;2023-05-03T11:15:58;102992.75;;;15.28;41.13
67457;BME280;54319;52.038;4.640;2023-05-03T11:18:25;102987.91;;;15.00;41.75
67457;BME280;54319;52.038;4.640;2023-05-03T11:20:51;102988.09;;;15.13;43.80
67457;BME280;54319;52.038;4.640;2023-05-03T11:23:23;102973.22;;;15.23;41.78
67457;BME280;54319;52.038;4.640;2023-05-03T11:25:50;102972.78;;;15.56;41.75
67457;BME280;54319;52.038;4.640;2023-05-03T11:28:16;102962.88;;;15.61;42.66
67457;BME280;54319;52.038;4.640;2023-05-03T11:30:44;102973.41;;;15.73;42.35
67457;BME280;54319;52.038;4.640;2023-05-03T11:33:11;102971.53;;;15.95;41.18
67457;BME280;54319;52.038;4.640;2023-05-03T11:35:37;102971.91;;;16.35;42.19
67457;BME280;54319;52.038;4.640;2023-05-03T11:38:04;102967.59;;;16.55;40.91
67457;BME280;54319;52.038;4.640;2023-05-03T11:40:32;102969.63;;;16.68;39.69
67457;BME280;54319;52.038;4.640;2023-05-03T11:42:59;102966.34;;;16.57;39.77
67457;BME280;54319;52.038;4.640;2023-05-03T11:45:27;102959.78;;;16.30;39.82
67457;BME280;54319;52.038;4.640;2023-05-03T11:47:55;102964.69;;;16.34;40.16
67457;BME280;54319;52.038;4.640;2023-05-03T11:50:26;102952.22;;;16.39;41.28
67457;BME280;54319;52.038;4.640;2023-05-03T11:52:52;102951.22;;;16.46;39.58
67457;BME280;54319;52.038;4.640;2023-05-03T11:55:20;102944.38;;;16.35;41.14
67457;BME280;54319;52.038;4.640;2023-05-03T11:57:48;102937.59;;;16.38;40.60
67457;BME280;54319;52.038;4.640;2023-05-03T12:00:14;102949.97;;;16.20;40.55
67457;BME280;54319;52.038;4.640;2023-05-03T12:02:42;102941.69;;;16.20;40.89
67457;BME280;54319;52.038;4.640;2023-05-03T12:05:08;102925.50;;;16.11;39.88
67457;BME280;54319;52.038;4.640;2023-05-03T12:07:35;102923.97;;;16.01;41.88
67457;BME280;54319;52.038;4.640;2023-05-03T12:10:10;102919.28;;;16.24;41.71
67457;BME280;54319;52.038;4.640;2023-05-03T12:12:37;102923.00;;;16.73;40.58
67457;BME280;54319;52.038;4.640;2023-05-03T12:15:06;102917.91;;;16.41;39.61
67457;BME280;54319;52.038;4.640;2023-05-03T12:17:33;102919.81;;;16.41;40.82
67457;BME280;54319;52.038;4.640;2023-05-03T12:20:13;102909.47;;;16.78;40.33
67457;BME280;54319;52.038;4.640;2023-05-03T12:22:40;102897.03;;;16.96;39.27
67457;BME280;54319;52.038;4.640;2023-05-03T12:25:07;102898.22;;;17.21;40.36
67457;BME280;54319;52.038;4.640;2023-05-03T12:27:33;102895.25;;;17.23;37.81
67457;BME280;54319;52.038;4.640;2023-05-03T12:30:00;102893.16;;;17.32;37.79
67457;BME280;54319;52.038;4.640;2023-05-03T12:32:27;102891.09;;;16.92;37.93
67457;BME280;54319;52.038;4.640;2023-05-03T12:34:54;102891.50;;;16.89;38.86
67457;BME280;54319;52.038;4.640;2023-05-03T12:37:20;102882.06;;;17.05;39.25
67457;BME280;54319;52.038;4.640;2023-05-03T12:39:47;102882.94;;;17.12;38.69
67457;BME280;54319;52.038;4.640;2023-05-03T12:42:13;102874.44;;;17.14;38.24
67457;BME280;54319;52.038;4.640;2023-05-03T12:44:40;102877.22;;;17.20;38.91
67457;BME280;54319;52.038;4.640;2023-05-03T12:47:08;102877.47;;;17.39;38.58
67457;BME280;54319;52.038;4.640;2023-05-03T12:49:36;102873.72;;;17.74;38.53
67457;BME280;54319;52.038;4.640;2023-05-03T12:52:02;102869.28;;;17.73;36.06
67457;BME280;54319;52.038;4.640;2023-05-03T12:54:29;102864.81;;;17.92;37.92
67457;BME280;54319;52.038;4.640;2023-05-03T12:56:55;102872.88;;;18.14;38.45
67457;BME280;54319;52.038;4.640;2023-05-03T12:59:23;102855.47;;;17.93;37.50